createdAt,value
2022-12-18T00:02:22.112Z,21.63
2022-12-18T00:04:48.769Z,21.27
2022-12-18T00:07:22.109Z,21.83
2022-12-18T00:09:55.089Z,23.63
2022-12-18T00:12:42.028Z,23.17
2022-12-18T00:15:15.138Z,22.80
2022-12-18T00:17:48.073Z,23.00
2022-12-18T00:20:14.670Z,22.30
2022-12-18T00:22:48.054Z,23.30
2022-12-18T00:25:21.065Z,21.63
2022-12-18T00:27:54.124Z,23.20
2022-12-18T00:30:27.067Z,22.13
2022-12-18T00:33:00.100Z,21.30
2022-12-18T00:35:26.743Z,20.93
2022-12-18T00:38:00.095Z,23.17
2022-12-18T00:40:26.717Z,22.43
2022-12-18T00:42:59.222Z,23.60
2022-12-18T00:45:38.137Z,21.90
2022-12-18T00:48:11.072Z,21.10
2022-12-18T00:50:37.818Z,21.27
2022-12-18T00:53:04.513Z,21.67
2022-12-18T00:55:38.150Z,21.17
2022-12-18T00:58:11.130Z,20.50
2022-12-18T01:00:38.978Z,19.87
2022-12-18T01:03:13.130Z,18.40
2022-12-18T01:05:48.055Z,17.87
2022-12-18T01:08:14.716Z,16.43
2022-12-18T01:10:49.115Z,16.50
2022-12-18T01:13:22.508Z,16.17
2022-12-18T01:15:57.207Z,17.53
2022-12-18T01:18:23.878Z,18.30
2022-12-18T01:20:57.132Z,18.40
2022-12-18T01:23:23.885Z,18.47
2022-12-18T01:25:57.032Z,19.63
2022-12-18T01:28:23.602Z,18.33
2022-12-18T01:30:57.134Z,19.13
2022-12-18T01:33:23.741Z,18.33
2022-12-18T01:35:57.040Z,18.47
2022-12-18T01:38:23.642Z,17.73
2022-12-18T01:40:57.113Z,18.23
2022-12-18T01:43:30.138Z,19.43
2022-12-18T01:46:00.885Z,18.40
2022-12-18T01:48:27.511Z,18.13
2022-12-18T01:51:01.102Z,19.40
2022-12-18T01:53:34.216Z,20.87
2022-12-18T01:56:00.980Z,21.23
2022-12-18T01:59:11.116Z,19.97
2022-12-18T02:01:45.176Z,17.63
2022-12-18T02:04:32.081Z,20.53
2022-12-18T02:07:33.117Z,20.37
2022-12-18T02:10:14.428Z,19.70
2022-12-18T02:12:56.103Z,20.53
2022-12-18T02:15:35.218Z,18.87
2022-12-18T02:18:18.087Z,21.85
2022-12-18T02:21:04.945Z,20.63
2022-12-18T02:24:11.172Z,20.50
2022-12-18T02:26:52.140Z,19.30
2022-12-18T02:29:35.088Z,22.07
2022-12-18T02:32:11.034Z,20.00
2022-12-18T02:34:40.746Z,21.87
2022-12-18T02:37:19.036Z,21.58
2022-12-18T02:39:48.340Z,21.57
2022-12-18T02:42:15.396Z,20.35
2022-12-18T02:44:54.032Z,22.30
2022-12-18T02:47:25.713Z,22.27
2022-12-18T02:50:28.040Z,21.30
2022-12-18T02:53:25.104Z,22.50
2022-12-18T02:56:10.674Z,20.10
2022-12-18T02:59:08.172Z,21.30
2022-12-18T03:01:58.745Z,22.33
2022-12-18T03:05:01.138Z,22.47
2022-12-18T03:07:56.222Z,20.57
2022-12-18T03:10:35.087Z,21.33
2022-12-18T03:13:20.105Z,21.47
2022-12-18T03:15:57.993Z,20.63
2022-12-18T03:18:57.086Z,20.47
2022-12-18T03:21:44.635Z,22.08
2022-12-18T03:24:19.129Z,22.17
2022-12-18T03:26:57.177Z,21.77
2022-12-18T03:29:41.094Z,19.53
2022-12-18T03:32:22.021Z,21.80
2022-12-18T03:34:58.140Z,21.27
2022-12-18T03:37:31.053Z,23.27
2022-12-18T03:39:57.715Z,22.70
2022-12-18T03:42:40.163Z,21.50
2022-12-18T03:45:20.040Z,21.20
2022-12-18T03:51:05.088Z,20.07
2022-12-18T03:56:23.171Z,18.27
2022-12-18T03:58:58.111Z,17.23
2022-12-18T04:01:30.658Z,17.03
2022-12-18T04:04:06.151Z,17.37
2022-12-18T04:06:43.083Z,18.67
2022-12-18T04:09:09.705Z,17.20
2022-12-18T04:11:43.122Z,17.70
2022-12-18T04:14:23.110Z,18.83
2022-12-18T04:16:56.114Z,18.47
2022-12-18T04:19:22.720Z,18.40
2022-12-18T04:21:56.111Z,19.77
2022-12-18T04:24:22.713Z,18.43
2022-12-18T04:26:56.096Z,18.07
2022-12-18T04:29:29.115Z,17.83
2022-12-18T04:32:02.120Z,17.73
2022-12-18T04:34:29.559Z,19.57
2022-12-18T04:36:56.167Z,19.43
2022-12-18T04:39:30.019Z,19.63
2022-12-18T04:41:56.765Z,19.20
2022-12-18T04:44:30.023Z,20.43
2022-12-18T04:46:56.865Z,19.00
2022-12-18T04:49:30.091Z,20.37
2022-12-18T04:51:56.728Z,19.60
2022-12-18T04:54:30.074Z,19.30
2022-12-18T04:56:56.678Z,20.47
2022-12-18T04:59:30.024Z,21.13
2022-12-18T05:01:56.718Z,19.83
2022-12-18T05:04:30.114Z,19.37
2022-12-18T05:06:56.814Z,19.13
2022-12-18T05:09:24.041Z,18.93
2022-12-18T05:11:57.141Z,20.43
2022-12-18T05:14:44.080Z,19.23
2022-12-18T05:17:17.088Z,17.10
2022-12-18T05:19:50.064Z,18.60
2022-12-18T05:22:16.699Z,20.50
2022-12-18T05:24:43.295Z,17.93
2022-12-18T05:27:16.077Z,18.57
2022-12-18T05:29:42.656Z,19.97
2022-12-18T05:32:09.242Z,19.73
2022-12-18T05:34:42.028Z,19.23
2022-12-18T05:37:08.622Z,18.20
2022-12-18T05:39:42.013Z,18.90
2022-12-18T05:42:08.632Z,17.77
2022-12-18T05:44:42.092Z,17.10
2022-12-18T05:47:15.061Z,16.67
2022-12-18T05:49:48.067Z,17.70
2022-12-18T05:52:21.130Z,17.97
2022-12-18T05:54:47.775Z,19.50
2022-12-18T05:57:21.071Z,16.67
2022-12-18T05:59:47.707Z,18.07
2022-12-18T06:02:21.112Z,18.00
2022-12-18T06:04:55.008Z,17.20
2022-12-18T06:07:21.608Z,17.87
2022-12-18T06:09:55.006Z,17.50
2022-12-18T06:12:22.087Z,17.47
2022-12-18T06:15:02.123Z,19.20
2022-12-18T06:17:33.259Z,18.90
2022-12-18T06:20:00.251Z,17.80
2022-12-18T06:22:34.059Z,19.27
2022-12-18T06:25:00.670Z,18.37
2022-12-18T06:27:34.066Z,19.83
2022-12-18T06:30:01.211Z,18.40
2022-12-18T06:32:35.067Z,18.33
2022-12-18T06:35:08.089Z,21.00
2022-12-18T06:37:34.695Z,19.23
2022-12-18T06:40:08.085Z,18.57
2022-12-18T06:42:34.767Z,20.00
2022-12-18T06:45:01.352Z,20.13
2022-12-18T06:47:34.016Z,19.23
2022-12-18T06:50:00.662Z,20.10
2022-12-18T06:52:34.060Z,20.30
2022-12-18T06:55:00.861Z,21.33
2022-12-18T06:57:34.019Z,21.17
2022-12-18T07:00:00.703Z,21.07
2022-12-18T07:02:34.259Z,20.40
2022-12-18T07:05:10.862Z,22.70
2022-12-18T07:07:44.104Z,21.60
2022-12-18T07:10:10.928Z,19.83
2022-12-18T07:12:51.071Z,19.47
2022-12-18T07:15:31.138Z,20.03
2022-12-18T07:17:57.722Z,20.63
2022-12-18T07:20:31.000Z,21.03
2022-12-18T07:23:04.063Z,20.17
2022-12-18T07:25:30.711Z,20.13
2022-12-18T07:28:04.091Z,20.87
2022-12-18T07:30:30.899Z,23.80
2022-12-18T07:32:57.551Z,22.27
2022-12-18T07:35:31.069Z,21.53
2022-12-18T07:37:57.698Z,22.73
2022-12-18T07:40:31.091Z,21.63
2022-12-18T07:42:57.713Z,22.30
2022-12-18T07:45:24.351Z,21.87
2022-12-18T07:47:57.132Z,24.77
2022-12-18T07:50:31.054Z,22.07
2022-12-18T07:52:57.677Z,22.23
2022-12-18T07:55:24.318Z,22.37
2022-12-18T07:58:01.036Z,22.97
2022-12-18T08:00:27.982Z,23.63
2022-12-18T08:02:54.791Z,23.23
2022-12-18T08:05:29.002Z,26.87
2022-12-18T08:08:02.052Z,23.80
2022-12-18T08:10:28.683Z,22.60
2022-12-18T08:13:09.063Z,24.97
2022-12-18T08:15:42.411Z,24.03
2022-12-18T08:18:16.009Z,24.30
2022-12-18T08:20:45.586Z,26.13
2022-12-18T08:23:19.059Z,23.73
2022-12-18T08:25:45.668Z,25.50
2022-12-18T08:28:12.339Z,25.53
2022-12-18T08:30:46.280Z,22.50
2022-12-18T08:33:13.336Z,24.53
2022-12-18T08:35:46.311Z,24.27
2022-12-18T08:38:26.054Z,24.17
2022-12-18T08:41:19.039Z,23.33
2022-12-18T08:44:04.484Z,25.17
2022-12-18T08:46:44.049Z,24.43
2022-12-18T08:49:12.052Z,23.70
2022-12-18T08:51:39.800Z,24.00
2022-12-18T08:54:13.043Z,24.77
2022-12-18T08:56:39.637Z,25.17
2022-12-18T08:59:19.019Z,23.60
2022-12-18T09:01:47.979Z,24.03
2022-12-18T09:04:22.032Z,25.27
2022-12-18T09:06:48.670Z,25.23
2022-12-18T09:09:22.075Z,23.20
2022-12-18T09:11:55.064Z,24.00
2022-12-18T09:14:34.982Z,23.33
2022-12-18T09:19:41.025Z,22.23
2022-12-18T09:22:14.032Z,23.07
2022-12-18T09:24:47.046Z,23.87
2022-12-18T09:27:13.643Z,22.67
2022-12-18T09:29:40.326Z,22.80
2022-12-18T09:32:15.281Z,21.13
2022-12-18T09:34:52.026Z,20.33
2022-12-18T09:37:18.912Z,19.87
2022-12-18T09:39:45.683Z,21.90
2022-12-18T09:42:29.100Z,20.43
2022-12-18T09:45:03.108Z,20.00
2022-12-18T09:47:35.533Z,19.20
2022-12-18T09:50:32.034Z,20.20
2022-12-18T09:53:03.853Z,21.07
2022-12-18T09:55:42.072Z,18.87
2022-12-18T10:00:37.445Z,18.20
2022-12-18T10:03:20.082Z,19.47
2022-12-18T10:06:16.685Z,18.13
2022-12-18T10:09:09.055Z,17.30
2022-12-18T10:12:06.068Z,15.13
2022-12-18T10:14:50.999Z,15.83
2022-12-18T10:18:10.402Z,16.37
2022-12-18T10:20:56.179Z,15.35
2022-12-18T10:23:48.631Z,16.37
2022-12-18T10:26:22.028Z,16.73
2022-12-18T10:29:05.531Z,16.23
2022-12-18T10:31:39.141Z,19.67
2022-12-18T10:34:16.106Z,18.10
2022-12-18T10:36:43.613Z,18.03
2022-12-18T10:39:30.979Z,17.50
2022-12-18T10:42:13.944Z,17.87
2022-12-18T10:45:08.112Z,18.80
2022-12-18T10:47:35.424Z,19.23
2022-12-18T10:50:02.284Z,19.90
2022-12-18T10:52:38.641Z,19.57
2022-12-18T10:55:18.404Z,19.30
2022-12-18T10:57:52.002Z,22.33
2022-12-18T11:00:33.002Z,20.60
2022-12-18T11:03:06.252Z,20.40
2022-12-18T11:05:44.039Z,20.60
2022-12-18T11:08:23.741Z,20.30
2022-12-18T11:10:57.060Z,18.20
2022-12-18T11:13:33.036Z,21.50
2022-12-18T11:16:13.116Z,20.50
2022-12-18T11:18:40.110Z,19.33
2022-12-18T11:21:08.311Z,19.77
2022-12-18T11:23:43.108Z,21.80
2022-12-18T11:26:09.796Z,19.67
2022-12-18T11:28:51.068Z,22.30
2022-12-18T11:31:23.058Z,22.30
2022-12-18T11:34:28.221Z,20.70
2022-12-18T11:36:51.870Z,22.30
2022-12-18T11:39:48.052Z,21.13
2022-12-18T11:42:25.054Z,23.03
2022-12-18T11:45:09.972Z,22.47
2022-12-18T11:47:58.717Z,22.80
2022-12-18T11:50:34.001Z,21.93
2022-12-18T11:53:05.865Z,23.47
2022-12-18T11:56:06.080Z,22.63
2022-12-18T11:58:53.535Z,21.40
2022-12-18T12:01:44.053Z,19.70
2022-12-18T12:05:00.122Z,18.97
2022-12-18T12:07:59.108Z,19.63
2022-12-18T12:10:40.972Z,19.17
2022-12-18T12:13:26.037Z,19.23
2022-12-18T12:16:30.112Z,20.07
2022-12-18T12:19:03.170Z,18.87
2022-12-18T12:21:53.051Z,17.57
2022-12-18T12:24:51.581Z,17.55
2022-12-18T12:27:33.965Z,18.63
2022-12-18T12:30:03.436Z,18.13
2022-12-18T12:32:42.966Z,19.15
2022-12-18T12:35:46.973Z,17.90
2022-12-18T12:38:13.633Z,18.50
2022-12-18T12:41:02.182Z,19.33
2022-12-18T12:43:49.454Z,19.45
2022-12-18T12:46:26.985Z,17.27
2022-12-18T12:49:06.965Z,18.30
2022-12-18T12:51:44.110Z,18.33
2022-12-18T12:54:26.953Z,17.93
2022-12-18T12:57:12.055Z,18.67
2022-12-18T13:00:04.105Z,17.93
2022-12-18T13:02:51.843Z,19.13
2022-12-18T13:05:49.040Z,19.17
2022-12-18T13:08:27.487Z,19.43
2022-12-18T13:11:25.044Z,18.70
2022-12-18T13:14:04.005Z,17.30
2022-12-18T13:16:36.992Z,16.97
2022-12-18T13:19:09.972Z,18.67
2022-12-18T13:21:44.036Z,19.70
2022-12-18T13:24:30.950Z,18.97
2022-12-18T13:27:03.975Z,19.23
2022-12-18T13:29:44.806Z,20.23
2022-12-18T13:32:32.955Z,19.50
2022-12-18T13:35:24.947Z,18.67
2022-12-18T13:38:46.926Z,21.17
2022-12-18T13:41:33.032Z,20.30
2022-12-18T13:44:26.742Z,20.80
2022-12-18T13:47:01.078Z,20.40
2022-12-18T13:49:38.493Z,20.17
2022-12-18T13:52:28.976Z,20.47
2022-12-18T13:55:05.011Z,20.10
2022-12-18T13:57:41.966Z,18.53
2022-12-18T14:00:23.679Z,20.77
2022-12-18T14:02:58.204Z,21.40
2022-12-18T14:05:35.766Z,21.07
2022-12-18T14:08:15.944Z,21.13
2022-12-18T14:10:48.644Z,19.65
2022-12-18T14:13:34.023Z,18.33
2022-12-18T14:16:11.166Z,19.73
2022-12-18T14:19:04.150Z,18.27
2022-12-18T14:21:40.006Z,17.43
2022-12-18T14:24:19.001Z,18.83
2022-12-18T14:26:47.289Z,20.48
2022-12-18T14:29:33.957Z,19.73
2022-12-18T14:32:16.511Z,20.80
2022-12-18T14:34:52.983Z,21.27
2022-12-18T14:37:23.931Z,20.30
2022-12-18T14:40:11.507Z,20.13
2022-12-18T14:42:38.588Z,21.23
2022-12-18T14:45:42.520Z,20.10
2022-12-18T14:48:12.902Z,20.30
2022-12-18T14:50:47.969Z,21.97
2022-12-18T14:53:42.602Z,20.97
2022-12-18T14:56:26.968Z,22.27
2022-12-18T14:59:25.491Z,22.33
2022-12-18T15:02:17.178Z,21.17
2022-12-18T15:04:45.000Z,22.53
2022-12-18T15:07:27.264Z,21.03
2022-12-18T15:10:16.721Z,21.20
2022-12-18T15:13:06.940Z,20.80
2022-12-18T15:18:39.967Z,18.87
2022-12-18T15:21:18.018Z,19.83
2022-12-18T15:23:51.043Z,20.47
2022-12-18T15:26:20.361Z,19.80
2022-12-18T15:28:50.734Z,19.42
2022-12-18T15:31:23.975Z,19.90
2022-12-18T15:33:53.936Z,18.83
2022-12-18T15:39:04.939Z,19.30
2022-12-18T15:41:44.340Z,19.37
2022-12-18T15:44:25.012Z,20.40
2022-12-18T15:46:57.998Z,19.67
2022-12-18T15:49:24.980Z,19.57
2022-12-18T15:52:02.040Z,19.63
2022-12-18T15:54:47.438Z,20.30
2022-12-18T15:57:32.928Z,18.70
2022-12-18T15:59:59.665Z,19.90
2022-12-18T16:02:34.363Z,20.37
2022-12-18T16:05:01.094Z,20.80
2022-12-18T16:07:37.009Z,21.10
2022-12-18T16:10:12.336Z,21.03
2022-12-18T16:12:39.197Z,19.67
2022-12-18T16:15:24.580Z,21.23
2022-12-18T16:17:58.366Z,19.30
2022-12-18T16:20:32.029Z,18.63
2022-12-18T16:22:58.802Z,18.83
2022-12-18T16:25:27.813Z,20.23
2022-12-18T16:28:04.934Z,19.43
2022-12-18T16:30:39.918Z,18.93
2022-12-18T16:33:07.474Z,18.43
2022-12-18T16:35:41.041Z,18.97
2022-12-18T16:38:14.074Z,21.83
2022-12-18T16:41:00.633Z,20.87
2022-12-18T16:43:33.960Z,20.27
2022-12-18T16:46:06.993Z,20.40
2022-12-18T16:48:33.645Z,20.77
2022-12-18T16:51:11.982Z,21.37
2022-12-18T16:53:39.061Z,19.70
2022-12-18T16:56:06.800Z,19.77
2022-12-18T16:58:40.965Z,21.07
2022-12-18T17:01:18.043Z,20.57
2022-12-18T17:03:45.237Z,21.23
2022-12-18T17:06:14.115Z,20.70
2022-12-18T17:08:46.947Z,21.43
2022-12-18T17:11:20.006Z,21.63
2022-12-18T17:13:52.951Z,23.50
2022-12-18T17:16:32.988Z,22.90
2022-12-18T17:19:01.013Z,23.00
2022-12-18T17:21:34.000Z,22.53
2022-12-18T17:24:01.392Z,20.77
2022-12-18T17:26:28.832Z,22.70
2022-12-18T17:29:06.913Z,22.77
2022-12-18T17:31:40.978Z,24.17
2022-12-18T17:34:09.534Z,24.97
2022-12-18T17:36:43.179Z,23.13
2022-12-18T17:39:24.002Z,23.30
2022-12-18T17:41:56.984Z,24.40
2022-12-18T17:44:23.612Z,24.37
2022-12-18T17:46:57.076Z,25.30
2022-12-18T17:49:29.928Z,25.20
2022-12-18T17:52:02.930Z,25.57
2022-12-18T17:54:29.552Z,28.80
2022-12-18T17:57:03.275Z,23.60
2022-12-18T17:59:29.954Z,26.87
2022-12-18T18:01:56.813Z,27.50
2022-12-18T18:04:31.031Z,25.90
2022-12-18T18:06:57.774Z,27.93
2022-12-18T18:09:30.968Z,28.63
2022-12-18T18:12:16.019Z,25.73
2022-12-18T18:14:48.963Z,27.43
2022-12-18T18:17:29.972Z,26.97
2022-12-18T18:20:03.020Z,27.40
2022-12-18T18:22:29.649Z,28.30
2022-12-18T18:25:02.995Z,28.13
2022-12-18T18:27:38.264Z,29.23
2022-12-18T18:30:11.925Z,28.07
2022-12-18T18:32:46.965Z,29.27
2022-12-18T18:35:37.561Z,28.37
2022-12-18T18:38:07.972Z,28.30
2022-12-18T18:40:41.030Z,28.27
2022-12-18T18:43:07.694Z,28.03
2022-12-18T18:45:40.995Z,27.60
2022-12-18T18:48:16.962Z,26.30
2022-12-18T18:50:45.690Z,27.60
2022-12-18T18:53:19.031Z,27.13
2022-12-18T18:56:24.854Z,28.67
2022-12-18T18:58:38.886Z,27.50
2022-12-18T19:01:19.947Z,28.57
2022-12-18T19:03:53.915Z,29.50
2022-12-18T19:06:26.453Z,27.40
2022-12-18T19:09:00.990Z,29.37
2022-12-18T19:11:46.616Z,27.93
2022-12-18T19:14:25.969Z,29.27
2022-12-18T19:16:59.143Z,26.00
2022-12-18T19:19:33.971Z,28.23
2022-12-18T19:22:07.000Z,29.37
2022-12-18T19:24:40.938Z,28.13
2022-12-18T19:27:07.571Z,28.80
2022-12-18T19:29:40.973Z,28.13
2022-12-18T19:32:11.185Z,27.73
2022-12-18T19:34:46.017Z,29.43
2022-12-18T19:37:14.757Z,30.37
2022-12-18T19:39:41.407Z,29.10
2022-12-18T19:42:28.184Z,29.20
2022-12-18T19:45:04.975Z,27.87
2022-12-18T19:47:44.954Z,27.83
2022-12-18T19:50:17.946Z,27.90
2022-12-18T19:52:44.685Z,30.23
2022-12-18T19:55:17.972Z,28.20
2022-12-18T19:57:44.801Z,28.90
2022-12-18T20:00:19.104Z,29.17
2022-12-18T20:02:45.769Z,28.83
2022-12-18T20:05:19.890Z,29.97
2022-12-18T20:07:46.482Z,28.63
2022-12-18T20:10:20.899Z,28.43
2022-12-18T20:12:48.246Z,27.17
2022-12-18T20:15:27.965Z,29.30
2022-12-18T20:18:00.990Z,29.35
2022-12-18T20:20:33.995Z,28.53
2022-12-18T20:23:07.026Z,27.80
2022-12-18T20:25:39.986Z,28.47
2022-12-18T20:28:06.714Z,28.47
2022-12-18T20:30:33.359Z,29.07
2022-12-18T20:33:06.931Z,27.63
2022-12-18T20:35:33.551Z,30.37
2022-12-18T20:38:06.909Z,30.00
2022-12-18T20:40:34.839Z,28.07
2022-12-18T20:43:10.340Z,30.30
2022-12-18T20:45:39.193Z,28.90
2022-12-18T20:48:14.960Z,29.25
2022-12-18T20:50:43.383Z,27.73
2022-12-18T20:53:16.921Z,29.70
2022-12-18T20:55:43.576Z,30.10
2022-12-18T20:58:10.240Z,28.07
2022-12-18T21:00:42.976Z,29.67
2022-12-18T21:03:11.136Z,29.57
2022-12-18T21:05:37.968Z,27.23
2022-12-18T21:08:14.034Z,27.90
2022-12-18T21:10:48.884Z,28.83
2022-12-18T21:13:23.030Z,28.40
2022-12-18T21:16:09.871Z,31.27
2022-12-18T21:18:43.975Z,27.13
2022-12-18T21:21:10.675Z,28.30
2022-12-18T21:23:37.565Z,28.40
2022-12-18T21:26:33.896Z,28.93
2022-12-18T21:29:10.037Z,28.00
2022-12-18T21:31:37.901Z,30.67
2022-12-18T21:34:06.719Z,30.47
2022-12-18T21:36:40.965Z,28.83
2022-12-18T21:39:14.947Z,29.63
2022-12-18T21:42:00.394Z,29.33
2022-12-18T21:44:35.701Z,27.57
2022-12-18T21:47:17.637Z,28.20
2022-12-18T21:49:55.928Z,27.27
2022-12-18T21:52:31.397Z,28.10
2022-12-18T21:55:09.916Z,28.43
2022-12-18T21:57:38.036Z,29.27
2022-12-18T22:00:18.955Z,27.83
2022-12-18T22:02:46.462Z,29.57
2022-12-18T22:05:19.927Z,27.40
2022-12-18T22:07:46.762Z,28.47
2022-12-18T22:10:19.949Z,30.57
2022-12-18T22:12:46.572Z,28.37
2022-12-18T22:15:21.357Z,30.60
2022-12-18T22:17:59.896Z,27.83
2022-12-18T22:20:34.973Z,30.13
2022-12-18T22:23:05.804Z,29.93
2022-12-18T22:25:33.567Z,28.13
2022-12-18T22:28:26.934Z,29.67
2022-12-18T22:30:54.931Z,28.23
2022-12-18T22:33:32.901Z,29.63
2022-12-18T22:36:13.873Z,30.27
2022-12-18T22:38:41.759Z,28.83
2022-12-18T22:41:14.906Z,27.77
2022-12-18T22:43:41.543Z,27.90
2022-12-18T22:46:23.962Z,28.70
2022-12-18T22:48:56.937Z,29.93
2022-12-18T22:51:23.659Z,29.70
2022-12-18T22:53:57.092Z,29.63
2022-12-18T22:56:24.360Z,27.83
2022-12-18T22:58:52.103Z,29.40
2022-12-18T23:01:32.148Z,29.70
2022-12-18T23:03:59.887Z,29.43
2022-12-18T23:06:33.871Z,29.53
2022-12-18T23:09:00.532Z,29.40
2022-12-18T23:11:33.894Z,27.70
2022-12-18T23:14:06.859Z,29.83
2022-12-18T23:16:46.901Z,29.53
2022-12-18T23:19:23.708Z,30.70
2022-12-18T23:21:58.249Z,27.27
2022-12-18T23:24:25.831Z,29.10
2022-12-18T23:26:58.872Z,29.60
2022-12-18T23:29:25.508Z,29.20
2022-12-18T23:31:58.993Z,28.77
2022-12-18T23:34:25.602Z,28.10
2022-12-18T23:36:55.968Z,27.70
2022-12-18T23:39:30.462Z,28.53
2022-12-18T23:42:00.859Z,30.67
2022-12-18T23:44:28.035Z,27.47
2022-12-18T23:47:01.941Z,28.93
2022-12-18T23:49:28.537Z,28.60
2022-12-18T23:51:55.206Z,27.90
2022-12-18T23:54:33.527Z,27.53
2022-12-18T23:57:00.708Z,26.73
2022-12-18T23:59:33.855Z,28.67
